Beulah, Mississippi
Current Conditions -  °F | °C
As of 5:55 PM on Saturday 22 Nov 2014 (Local Time) from KRNV Reporting Station
Clear Clear  
Wind Chill: 62°   Ceiling: Unl
Heat Index: 62°   Visibility: 10mi
Dew Point: 53°   Wind: 7mph
Humidity: 73%   Direction: 130°SE
Pressure: 30.03"   Gusts: NA
Location:  33.79°N, 90.98°W
Report Text: KRNV 222355Z AUTO 13006KT 10SM CLR 17/12 A3003 RMK AO2 T01660117 10202 20166
Loading
Personal Weather Stations






























Interactive Weather Map New forecast layout! Learn more

10-Day Weather Forecast

Advertisements
Track Severe Weather on mobile